createdAt,value
2023-03-10T00:01:00.710Z,125.40
2023-03-10T00:02:02.719Z,119.30
2023-03-10T00:03:04.754Z,118.45
2023-03-10T00:04:06.791Z,128.18
2023-03-10T00:05:10.663Z,124.75
2023-03-10T00:08:28.267Z,109.00
2023-03-10T00:09:30.162Z,112.38
2023-03-10T00:10:32.242Z,113.20
2023-03-10T00:11:34.343Z,135.68
2023-03-10T00:12:36.314Z,125.15
2023-03-10T00:13:38.918Z,123.72
2023-03-10T00:14:41.132Z,127.63
2023-03-10T00:16:45.315Z,126.57
2023-03-10T00:17:50.195Z,122.22
2023-03-10T00:18:53.186Z,115.07
2023-03-10T00:19:55.199Z,122.18
2023-03-10T00:20:59.016Z,119.50
2023-03-10T00:22:02.631Z,130.10
2023-03-10T00:23:04.628Z,122.53
2023-03-10T00:24:06.923Z,120.05
2023-03-10T00:25:10.530Z,125.68
2023-03-10T00:26:14.557Z,128.40
2023-03-10T00:27:16.590Z,136.70
2023-03-10T00:28:18.521Z,139.35
2023-03-10T00:29:22.105Z,128.98
2023-03-10T00:30:24.315Z,134.73
2023-03-10T00:31:28.128Z,124.55
2023-03-10T00:32:30.181Z,123.50
2023-03-10T00:33:33.692Z,131.80
2023-03-10T00:34:35.923Z,134.25
2023-03-10T00:35:37.914Z,131.27
2023-03-10T00:36:40.576Z,136.07
2023-03-10T00:37:42.448Z,140.20
2023-03-10T00:38:45.651Z,139.50
2023-03-10T00:39:52.222Z,127.40
2023-03-10T00:41:01.738Z,129.70
2023-03-10T00:42:03.765Z,145.95
2023-03-10T00:43:05.707Z,149.77
2023-03-10T00:44:09.686Z,137.50
2023-03-10T00:45:11.812Z,129.80
2023-03-10T00:46:14.205Z,137.60
2023-03-10T00:47:16.143Z,125.18
2023-03-10T00:48:18.087Z,117.15
2023-03-10T00:49:20.462Z,132.13
2023-03-10T00:50:22.302Z,117.03
2023-03-10T00:51:24.310Z,120.75
2023-03-10T00:52:26.178Z,122.88
2023-03-10T00:53:28.872Z,115.32
2023-03-10T00:54:30.733Z,125.75
2023-03-10T00:55:32.800Z,119.45
2023-03-10T00:56:34.729Z,126.63
2023-03-10T00:57:36.908Z,127.18
2023-03-10T00:58:39.173Z,118.47
2023-03-10T00:59:49.919Z,126.38
2023-03-10T01:00:52.715Z,117.13
2023-03-10T01:01:54.736Z,112.55
2023-03-10T01:02:56.720Z,120.95
2023-03-10T01:04:02.185Z,115.50
2023-03-10T01:05:04.310Z,110.15
2023-03-10T01:06:06.491Z,95.15
2023-03-10T01:07:08.400Z,111.28
2023-03-10T01:08:10.281Z,91.82
2023-03-10T01:09:12.254Z,81.90
2023-03-10T01:10:14.302Z,92.85
2023-03-10T01:11:17.862Z,86.03
2023-03-10T01:12:19.925Z,106.45
2023-03-10T01:13:22.142Z,111.20
2023-03-10T01:14:24.901Z,110.25
2023-03-10T01:15:26.836Z,108.97
2023-03-10T01:16:30.121Z,120.72
2023-03-10T01:17:32.320Z,108.22
2023-03-10T01:18:34.216Z,115.47
2023-03-10T01:19:36.173Z,120.97
2023-03-10T01:20:38.111Z,111.63
2023-03-10T01:21:41.206Z,99.55
2023-03-10T01:22:43.881Z,119.05
2023-03-10T01:23:46.339Z,103.82
2023-03-10T01:24:48.232Z,88.13
2023-03-10T01:25:51.218Z,91.07
2023-03-10T01:26:53.077Z,89.15
2023-03-10T01:27:55.181Z,104.65
2023-03-10T01:28:57.495Z,91.10
2023-03-10T01:29:59.658Z,98.55
2023-03-10T01:31:01.631Z,95.47
2023-03-10T01:32:03.709Z,91.15
2023-03-10T01:33:06.181Z,95.55
2023-03-10T01:34:08.163Z,79.18
2023-03-10T01:35:10.932Z,77.85
2023-03-10T01:36:22.746Z,84.95
2023-03-10T01:37:24.782Z,78.80
2023-03-10T01:38:26.759Z,82.85
2023-03-10T01:39:28.640Z,84.78
2023-03-10T01:40:30.640Z,86.60
2023-03-10T01:41:32.523Z,80.43
2023-03-10T01:42:34.738Z,70.90
2023-03-10T01:43:41.705Z,82.88
2023-03-10T01:44:43.825Z,85.45
2023-03-10T01:45:45.772Z,79.03
2023-03-10T01:46:59.351Z,82.22
2023-03-10T01:48:01.786Z,87.07
2023-03-10T01:49:19.080Z,82.07
2023-03-10T01:50:22.043Z,72.40
2023-03-10T01:51:24.763Z,71.63
2023-03-10T01:52:31.180Z,71.43
2023-03-10T01:53:34.033Z,84.28
2023-03-10T01:54:42.671Z,79.28
2023-03-10T01:55:52.735Z,84.22
2023-03-10T01:56:56.226Z,66.00
2023-03-10T01:57:58.621Z,81.32
2023-03-10T01:59:00.651Z,89.25
2023-03-10T02:00:04.444Z,77.80
2023-03-10T02:01:08.879Z,73.85
2023-03-10T02:02:11.964Z,74.53
2023-03-10T02:03:22.946Z,79.13
2023-03-10T02:04:35.974Z,72.78
2023-03-10T02:05:43.857Z,70.28
2023-03-10T02:06:48.370Z,75.78
2023-03-10T02:07:50.896Z,74.07
2023-03-10T02:08:56.702Z,76.22
2023-03-10T02:09:59.623Z,77.13
2023-03-10T02:11:02.104Z,81.35
2023-03-10T02:12:05.705Z,81.05
2023-03-10T02:13:07.716Z,73.65
2023-03-10T02:14:09.651Z,80.53
2023-03-10T02:15:12.293Z,76.43
2023-03-10T02:16:15.098Z,81.65
2023-03-10T02:17:21.631Z,79.07
2023-03-10T02:18:24.327Z,79.22
2023-03-10T02:20:07.080Z,84.05
2023-03-10T02:21:21.468Z,75.90
2023-03-10T02:22:23.466Z,73.00
2023-03-10T02:24:00.357Z,73.82
2023-03-10T02:25:20.843Z,75.28
2023-03-10T02:26:37.966Z,73.35
2023-03-10T02:27:40.949Z,71.40
2023-03-10T02:28:43.784Z,71.32
2023-03-10T02:30:07.751Z,73.15
2023-03-10T02:32:34.672Z,73.05
2023-03-10T02:33:46.123Z,75.10
2023-03-10T02:34:48.014Z,70.97
2023-03-10T02:35:49.982Z,69.18
2023-03-10T02:36:51.929Z,75.10
2023-03-10T02:37:53.906Z,81.40
2023-03-10T02:38:55.897Z,86.47
2023-03-10T02:39:58.425Z,72.57
2023-03-10T02:41:02.493Z,77.75
2023-03-10T02:42:04.554Z,81.20
2023-03-10T02:43:32.742Z,74.50
2023-03-10T02:44:35.122Z,71.57
2023-03-10T02:45:39.747Z,73.82
2023-03-10T02:46:41.805Z,73.53
2023-03-10T02:47:43.746Z,72.70
2023-03-10T02:48:45.819Z,73.60
2023-03-10T02:49:48.323Z,81.07
2023-03-10T02:50:51.195Z,79.45
2023-03-10T02:51:54.982Z,86.70
2023-03-10T02:53:18.236Z,76.28
2023-03-10T02:54:20.203Z,73.55
2023-03-10T02:55:22.297Z,74.15
2023-03-10T02:56:24.542Z,74.90
2023-03-10T02:57:26.603Z,79.22
2023-03-10T02:58:30.681Z,83.35
2023-03-10T02:59:33.347Z,81.75
2023-03-10T03:00:42.959Z,104.07
2023-03-10T03:01:45.092Z,93.25
2023-03-10T03:02:47.067Z,90.32
2023-03-10T03:03:49.003Z,82.28
2023-03-10T03:04:50.894Z,80.53
2023-03-10T03:05:53.381Z,75.53
2023-03-10T03:06:55.529Z,68.57
2023-03-10T03:07:57.485Z,67.53
2023-03-10T03:08:59.478Z,73.68
2023-03-10T03:10:01.408Z,86.38
2023-03-10T03:11:03.537Z,99.97
2023-03-10T03:12:05.621Z,91.32
2023-03-10T03:13:08.088Z,87.43
2023-03-10T03:14:10.296Z,90.88
2023-03-10T03:15:12.342Z,105.82
2023-03-10T03:16:14.837Z,104.82
2023-03-10T03:17:16.803Z,95.20
2023-03-10T03:18:18.784Z,97.90
2023-03-10T03:19:20.743Z,76.82
2023-03-10T03:20:22.657Z,86.85
2023-03-10T03:21:24.639Z,93.15
2023-03-10T03:22:26.525Z,79.32
2023-03-10T03:23:28.509Z,75.40
2023-03-10T03:24:32.112Z,87.38
2023-03-10T03:25:38.264Z,86.75
2023-03-10T03:26:41.043Z,76.72
2023-03-10T03:27:43.456Z,83.60
2023-03-10T03:28:46.153Z,83.10
2023-03-10T03:29:48.020Z,77.88
2023-03-10T03:30:49.921Z,90.15
2023-03-10T03:31:54.561Z,81.85
2023-03-10T03:32:57.207Z,73.28
2023-03-10T03:33:59.058Z,80.05
2023-03-10T03:35:01.277Z,79.20
2023-03-10T03:36:03.246Z,108.43
2023-03-10T03:37:05.534Z,87.05
2023-03-10T03:38:07.629Z,84.00
2023-03-10T03:39:09.576Z,102.05
2023-03-10T03:40:13.467Z,80.95
2023-03-10T03:41:15.417Z,89.45
2023-03-10T03:42:17.342Z,91.25
2023-03-10T03:43:19.236Z,79.90
2023-03-10T03:44:21.108Z,96.07
2023-03-10T03:45:29.482Z,76.47
2023-03-10T03:46:31.470Z,82.95
2023-03-10T03:47:33.789Z,83.75
2023-03-10T03:48:35.956Z,87.45
2023-03-10T03:49:38.664Z,82.82
2023-03-10T03:50:40.737Z,92.50
2023-03-10T03:51:42.728Z,89.60
2023-03-10T03:52:45.781Z,90.00
2023-03-10T03:53:47.687Z,90.30
2023-03-10T03:54:49.785Z,79.68
2023-03-10T03:55:51.950Z,80.32
2023-03-10T03:56:53.843Z,78.88
2023-03-10T03:57:55.797Z,94.28
2023-03-10T03:58:58.883Z,79.32
2023-03-10T04:00:00.764Z,82.45
2023-03-10T04:01:02.680Z,78.60
2023-03-10T04:02:04.602Z,83.90
2023-03-10T04:03:06.797Z,80.38
2023-03-10T04:04:08.995Z,70.32
2023-03-10T04:05:11.378Z,76.63
2023-03-10T04:06:13.295Z,71.90
2023-03-10T04:07:15.222Z,73.30
2023-03-10T04:08:17.528Z,82.07
2023-03-10T04:09:19.611Z,86.65
2023-03-10T04:10:23.741Z,76.88
2023-03-10T04:11:25.693Z,76.47
2023-03-10T04:12:29.616Z,76.55
2023-03-10T04:13:31.651Z,74.10
2023-03-10T04:14:34.834Z,81.88
2023-03-10T04:15:36.811Z,82.72
2023-03-10T04:16:38.757Z,87.28
2023-03-10T04:17:40.673Z,92.40
2023-03-10T04:18:45.600Z,97.82
2023-03-10T04:19:54.152Z,82.00
2023-03-10T04:21:02.669Z,78.05
2023-03-10T04:22:04.576Z,71.95
2023-03-10T04:23:06.488Z,76.43
2023-03-10T04:24:08.521Z,77.95
2023-03-10T04:25:10.982Z,82.85
2023-03-10T04:26:13.507Z,78.32
2023-03-10T04:27:15.686Z,76.93
2023-03-10T04:28:18.905Z,75.32
2023-03-10T04:29:24.471Z,71.90
2023-03-10T04:30:29.465Z,75.00
2023-03-10T04:31:31.612Z,74.40
2023-03-10T04:32:33.765Z,76.50
2023-03-10T04:33:36.050Z,75.65
2023-03-10T04:34:37.976Z,80.80
2023-03-10T04:35:47.681Z,87.65
2023-03-10T04:36:49.656Z,82.03
2023-03-10T04:37:51.610Z,86.57
2023-03-10T04:38:53.511Z,70.07
2023-03-10T04:39:55.502Z,67.55
2023-03-10T04:40:58.718Z,65.43
2023-03-10T04:42:00.676Z,84.47
2023-03-10T04:43:02.643Z,71.30
2023-03-10T04:44:05.085Z,62.78
2023-03-10T04:45:07.681Z,68.03
2023-03-10T04:46:09.995Z,68.03
2023-03-10T04:47:11.943Z,74.47
2023-03-10T04:48:13.898Z,64.75
2023-03-10T04:49:15.882Z,71.40
2023-03-10T04:50:22.900Z,54.03
2023-03-10T04:51:24.879Z,64.18
2023-03-10T04:52:26.849Z,68.90
2023-03-10T04:53:29.595Z,65.78
2023-03-10T04:54:31.536Z,74.45
2023-03-10T04:55:33.705Z,69.50
2023-03-10T04:56:36.008Z,70.15
2023-03-10T04:57:38.368Z,63.38
2023-03-10T04:58:40.364Z,76.03
2023-03-10T04:59:42.400Z,84.55
2023-03-10T05:00:56.621Z,79.38
2023-03-10T05:02:04.627Z,71.20
2023-03-10T05:03:06.746Z,80.60
2023-03-10T05:04:10.224Z,67.13
2023-03-10T05:05:12.470Z,72.03
2023-03-10T05:06:23.504Z,71.93
2023-03-10T05:08:27.497Z,70.90
2023-03-10T05:09:29.491Z,71.00
2023-03-10T05:10:34.122Z,67.72
2023-03-10T05:11:36.278Z,74.70
2023-03-10T05:12:39.596Z,87.97
2023-03-10T05:13:41.526Z,78.30
2023-03-10T05:14:43.477Z,91.70
2023-03-10T05:15:45.503Z,94.13
2023-03-10T05:16:48.861Z,98.82
2023-03-10T05:17:51.020Z,105.22
2023-03-10T05:18:53.087Z,93.93
2023-03-10T05:19:55.172Z,95.60
2023-03-10T05:20:58.368Z,93.10
2023-03-10T05:22:00.471Z,79.05
2023-03-10T05:23:02.637Z,90.25
2023-03-10T05:24:04.734Z,100.03
2023-03-10T05:25:07.690Z,80.80
2023-03-10T05:26:11.342Z,85.80
2023-03-10T05:27:15.021Z,103.15
2023-03-10T05:28:17.404Z,74.97
2023-03-10T05:29:20.924Z,88.78
2023-03-10T05:30:23.104Z,76.38
2023-03-10T05:31:27.883Z,96.88
2023-03-10T05:32:29.894Z,77.00
2023-03-10T05:33:32.472Z,83.90
2023-03-10T05:34:35.094Z,72.47
2023-03-10T05:35:39.049Z,64.38
2023-03-10T05:36:41.699Z,75.97
2023-03-10T05:37:45.354Z,74.38
2023-03-10T05:38:47.792Z,62.33
2023-03-10T05:39:49.709Z,74.82
2023-03-10T05:40:51.587Z,73.57
2023-03-10T05:41:53.484Z,65.97
2023-03-10T05:42:55.424Z,68.20
2023-03-10T05:43:57.452Z,71.50
2023-03-10T05:44:59.352Z,80.93
2023-03-10T05:46:01.316Z,67.38
2023-03-10T05:47:03.385Z,70.40
2023-03-10T05:48:05.696Z,63.00
2023-03-10T05:49:07.597Z,57.70
2023-03-10T05:50:11.060Z,57.70
2023-03-10T05:51:13.218Z,64.70
2023-03-10T05:52:15.269Z,44.42
2023-03-10T05:53:17.210Z,46.88
2023-03-10T05:54:19.143Z,55.08
2023-03-10T05:55:22.146Z,48.00
2023-03-10T05:56:24.103Z,57.75
2023-03-10T05:57:26.002Z,45.95
2023-03-10T05:58:28.008Z,38.60
2023-03-10T05:59:29.928Z,40.97
2023-03-10T06:00:31.906Z,40.80
2023-03-10T06:01:33.952Z,36.03
2023-03-10T06:02:36.646Z,34.75
2023-03-10T06:03:39.016Z,41.15
2023-03-10T06:04:41.113Z,34.58
2023-03-10T06:05:43.387Z,44.80
2023-03-10T06:06:45.286Z,40.45
2023-03-10T06:07:47.177Z,27.17
2023-03-10T06:08:49.770Z,27.50
2023-03-10T06:09:54.030Z,33.38
2023-03-10T06:10:56.939Z,33.22
2023-03-10T06:11:59.691Z,30.90
2023-03-10T06:13:01.658Z,34.97
2023-03-10T06:14:04.380Z,34.90
2023-03-10T06:15:07.165Z,37.85
2023-03-10T06:16:09.164Z,33.40
2023-03-10T06:17:11.254Z,27.95
2023-03-10T06:18:13.133Z,28.90
2023-03-10T06:19:15.024Z,37.58
2023-03-10T06:20:16.958Z,33.78
2023-03-10T06:21:19.021Z,30.42
2023-03-10T06:22:20.895Z,32.55
2023-03-10T06:23:24.349Z,32.22
2023-03-10T06:24:28.620Z,37.10
2023-03-10T06:25:30.664Z,33.22
2023-03-10T06:26:32.801Z,33.35
2023-03-10T06:27:34.696Z,32.47
2023-03-10T06:28:38.941Z,33.05
2023-03-10T06:29:40.982Z,29.58
2023-03-10T06:30:42.875Z,27.45
2023-03-10T06:31:44.870Z,23.27
2023-03-10T06:32:46.920Z,22.80
2023-03-10T06:33:49.055Z,28.55
2023-03-10T06:34:50.919Z,28.55
2023-03-10T06:35:53.022Z,25.13
2023-03-10T06:36:56.322Z,24.88
2023-03-10T06:37:58.233Z,34.67
2023-03-10T06:39:00.208Z,36.22
2023-03-10T06:40:02.491Z,27.77
2023-03-10T06:41:04.762Z,27.92
2023-03-10T06:42:09.226Z,28.67
2023-03-10T06:43:11.098Z,27.73
2023-03-10T06:44:18.810Z,22.63
2023-03-10T06:45:20.829Z,22.98
2023-03-10T06:46:23.045Z,20.90
2023-03-10T06:47:25.011Z,23.20
2023-03-10T06:48:29.192Z,25.33
2023-03-10T06:49:32.901Z,20.75
2023-03-10T06:50:35.220Z,22.10
2023-03-10T06:51:37.173Z,25.08
2023-03-10T06:52:39.124Z,21.15
2023-03-10T06:53:41.414Z,19.52
2023-03-10T06:54:43.298Z,19.88
2023-03-10T06:55:45.593Z,21.30
2023-03-10T06:56:47.590Z,24.55
2023-03-10T06:57:51.917Z,14.23
2023-03-10T06:58:53.872Z,18.70
2023-03-10T06:59:55.969Z,18.40
2023-03-10T07:00:59.090Z,18.17
2023-03-10T07:02:01.049Z,19.00
2023-03-10T07:03:03.059Z,18.42
2023-03-10T07:04:04.997Z,21.02
2023-03-10T07:05:08.203Z,18.20
2023-03-10T07:06:10.112Z,22.60
2023-03-10T07:07:13.521Z,14.68
2023-03-10T08:06:33.062Z,9.90
2023-03-10T08:07:35.710Z,13.30
2023-03-10T08:08:38.091Z,7.82
2023-03-10T08:09:40.395Z,7.15
2023-03-10T08:10:42.558Z,7.70
2023-03-10T08:11:44.470Z,9.43
2023-03-10T08:12:46.356Z,8.05
2023-03-10T08:13:48.813Z,15.73
2023-03-10T08:37:44.040Z,34.20
2023-03-10T08:38:46.718Z,60.30
2023-03-10T08:39:50.147Z,17.92
2023-03-10T08:40:52.091Z,9.00
2023-03-10T08:41:54.031Z,6.60
2023-03-10T08:42:55.938Z,6.85
2023-03-10T08:43:59.081Z,17.60
2023-03-10T08:45:01.212Z,30.23
2023-03-10T08:46:03.214Z,11.93
2023-03-10T11:07:27.460Z,7.05
2023-03-10T11:08:37.786Z,4.53
2023-03-10T11:09:39.730Z,3.23
2023-03-10T11:10:42.693Z,2.78
2023-03-10T11:11:51.452Z,4.00
2023-03-10T11:13:17.530Z,6.80
2023-03-10T11:14:35.361Z,4.97
2023-03-10T11:15:46.489Z,7.10
2023-03-10T11:18:02.489Z,7.35
2023-03-10T11:19:32.908Z,6.35
2023-03-10T11:20:49.685Z,5.45
2023-03-10T11:21:57.293Z,3.17
2023-03-10T11:23:13.412Z,2.58
2023-03-10T11:24:38.573Z,4.13
2023-03-10T11:25:52.310Z,3.78
2023-03-10T11:27:20.063Z,3.38
2023-03-10T11:28:52.472Z,3.90
2023-03-10T11:30:11.000Z,2.35
2023-03-10T11:31:39.718Z,2.85
2023-03-10T11:32:59.154Z,2.40
2023-03-10T11:34:19.983Z,1.88
2023-03-10T11:35:27.522Z,2.90
2023-03-10T11:36:55.805Z,2.70
2023-03-10T11:38:28.885Z,2.25
2023-03-10T11:39:45.644Z,3.03
2023-03-10T11:40:57.331Z,3.83
2023-03-10T11:42:25.867Z,3.47
2023-03-10T11:43:52.184Z,2.20
2023-03-10T11:45:04.772Z,4.32
2023-03-10T11:46:23.817Z,2.90
2023-03-10T11:47:50.955Z,5.53
2023-03-10T11:49:01.822Z,4.28
2023-03-10T11:50:32.029Z,3.83
2023-03-10T11:51:45.524Z,4.78
2023-03-10T11:52:50.988Z,3.58
2023-03-10T11:53:55.828Z,2.90
2023-03-10T11:55:14.943Z,2.92
2023-03-10T11:56:20.579Z,3.28
2023-03-10T11:57:25.698Z,2.90
2023-03-10T11:58:35.367Z,3.85
2023-03-10T11:59:47.626Z,4.00
2023-03-10T12:00:52.754Z,3.67
2023-03-10T12:02:20.194Z,4.93
2023-03-10T12:03:54.065Z,3.22
2023-03-10T12:05:08.874Z,2.10
2023-03-10T12:06:19.990Z,2.35
2023-03-10T12:07:36.199Z,2.92
2023-03-10T12:08:40.055Z,2.35
2023-03-10T12:09:54.374Z,4.30
2023-03-10T12:10:59.745Z,1.60
2023-03-10T12:12:04.075Z,3.38
2023-03-10T12:13:06.754Z,3.55
2023-03-10T12:14:14.343Z,3.17
2023-03-10T12:15:32.992Z,3.55
2023-03-10T12:16:38.293Z,3.00
2023-03-10T12:17:41.189Z,2.38
2023-03-10T12:18:43.169Z,2.78
2023-03-10T12:20:16.256Z,2.40
2023-03-10T12:21:19.650Z,1.67
2023-03-10T12:22:21.506Z,2.40
2023-03-10T12:23:26.871Z,1.95
2023-03-10T12:24:48.047Z,2.15
2023-03-10T12:25:50.479Z,4.53
2023-03-10T12:27:00.006Z,2.58
2023-03-10T12:28:17.669Z,3.70
2023-03-10T12:29:22.613Z,2.85
2023-03-10T12:30:53.468Z,3.10
2023-03-10T12:31:55.588Z,2.22
2023-03-10T12:32:57.647Z,2.40
2023-03-10T12:34:23.791Z,2.55
2023-03-10T12:35:28.596Z,2.15
2023-03-10T12:36:33.919Z,2.40
2023-03-10T12:37:35.882Z,3.33
2023-03-10T12:38:43.254Z,6.95
2023-03-10T12:39:46.036Z,3.08
2023-03-10T12:40:52.190Z,2.00
2023-03-10T12:42:01.880Z,2.70
2023-03-10T12:43:38.711Z,2.80
2023-03-10T12:44:49.855Z,7.63
2023-03-10T12:45:52.114Z,2.45
2023-03-10T12:47:09.248Z,1.33
2023-03-10T12:48:17.845Z,1.65
2023-03-10T12:49:33.567Z,2.20
2023-03-10T12:50:48.098Z,2.00
2023-03-10T12:52:14.256Z,1.70
2023-03-10T12:53:30.609Z,3.40
2023-03-10T12:54:52.437Z,3.97
2023-03-10T12:56:12.728Z,2.30
2023-03-10T12:57:32.766Z,3.03
2023-03-10T12:58:37.232Z,2.65
2023-03-10T12:59:46.784Z,2.75
2023-03-10T13:00:53.494Z,2.45
2023-03-10T13:01:57.894Z,3.75
2023-03-10T13:03:32.079Z,1.65
2023-03-10T13:04:34.933Z,2.67
2023-03-10T13:06:14.894Z,1.67
2023-03-10T13:07:19.690Z,2.92
2023-03-10T13:08:41.512Z,2.15
2023-03-10T13:09:47.973Z,4.18
2023-03-10T13:10:55.602Z,1.95
2023-03-10T13:12:03.217Z,2.20
2023-03-10T13:13:08.970Z,1.80
2023-03-10T13:14:24.222Z,3.58
2023-03-10T13:15:32.103Z,1.85
2023-03-10T13:16:36.566Z,2.95
2023-03-10T13:17:38.588Z,2.72
2023-03-10T13:18:48.722Z,2.60
2023-03-10T13:20:02.284Z,11.73
2023-03-10T13:21:04.348Z,4.80
2023-03-10T13:22:06.362Z,3.67
2023-03-10T13:23:29.583Z,4.35
2023-03-10T13:24:35.663Z,8.70
2023-03-10T13:25:37.529Z,9.23
2023-03-10T13:26:39.394Z,5.28
2023-03-10T13:27:41.252Z,3.40
2023-03-10T13:29:00.993Z,1.85
2023-03-10T13:30:21.724Z,3.47
2023-03-10T13:31:27.245Z,3.55
2023-03-10T13:32:30.558Z,4.10
2023-03-10T13:33:43.064Z,2.88
2023-03-10T13:34:48.781Z,3.55
2023-03-10T13:35:50.812Z,3.67
2023-03-10T13:36:52.664Z,5.05
2023-03-10T13:38:09.514Z,6.93
2023-03-10T13:39:25.586Z,9.65
2023-03-10T13:40:28.658Z,8.23
2023-03-10T13:41:37.384Z,11.10
2023-03-10T13:42:44.278Z,7.32
2023-03-10T13:43:51.384Z,4.50
2023-03-10T13:44:55.276Z,3.10
2023-03-10T13:45:58.806Z,18.20
2023-03-10T13:47:04.482Z,10.40
2023-03-10T13:48:07.287Z,10.25
2023-03-10T13:49:13.740Z,7.40
2023-03-10T13:50:16.960Z,8.40
2023-03-10T13:51:32.260Z,6.85
2023-03-10T13:52:34.814Z,4.75
2023-03-10T13:53:36.830Z,9.05
2023-03-10T13:54:41.791Z,9.93
2023-03-10T13:55:43.731Z,11.10
2023-03-10T13:56:47.175Z,10.85
2023-03-10T13:57:50.334Z,8.68
2023-03-10T13:58:55.169Z,9.57
2023-03-10T13:59:58.172Z,14.13
2023-03-10T14:01:00.990Z,4.68
2023-03-10T14:02:04.698Z,3.92
2023-03-10T14:03:08.283Z,9.02
2023-03-10T14:04:16.964Z,8.73
2023-03-10T14:05:47.141Z,10.50
2023-03-10T14:07:26.345Z,11.10
2023-03-10T14:08:30.996Z,8.77
2023-03-10T14:09:32.899Z,9.50
2023-03-10T14:10:34.928Z,8.30
2023-03-10T14:11:46.931Z,6.30
2023-03-10T14:12:54.484Z,4.28
2023-03-10T14:13:56.448Z,3.22
2023-03-10T14:15:38.716Z,4.00
2023-03-10T14:16:45.850Z,6.13
2023-03-10T14:18:07.467Z,5.18
2023-03-10T14:19:11.060Z,4.30
2023-03-10T14:20:30.542Z,4.03
2023-03-10T14:21:34.214Z,5.40
2023-03-10T14:22:43.657Z,9.20
2023-03-10T14:23:45.645Z,6.10
2023-03-10T14:24:47.625Z,3.40
2023-03-10T14:25:52.780Z,3.47
2023-03-10T14:26:59.742Z,2.80
2023-03-10T14:28:29.152Z,2.30
2023-03-10T14:29:32.524Z,3.58
2023-03-10T14:30:34.954Z,3.35
2023-03-10T14:31:36.857Z,5.32
2023-03-10T14:32:39.700Z,5.93
2023-03-10T14:33:42.364Z,3.25
2023-03-10T14:34:44.632Z,5.95
2023-03-10T14:35:47.186Z,4.88
2023-03-10T14:36:49.036Z,2.92
2023-03-10T14:37:51.952Z,2.85
2023-03-10T14:38:53.857Z,3.15
2023-03-10T14:39:55.837Z,2.00
2023-03-10T14:40:57.728Z,2.63
2023-03-10T14:42:02.849Z,3.70
2023-03-10T14:43:05.155Z,3.50
2023-03-10T14:44:07.247Z,4.22
2023-03-10T14:45:29.551Z,3.42
2023-03-10T14:46:35.344Z,3.00
2023-03-10T14:47:37.866Z,5.22
2023-03-10T14:48:42.083Z,4.35
2023-03-10T14:49:44.233Z,3.50
2023-03-10T14:50:47.707Z,4.50
2023-03-10T14:51:49.779Z,11.63
2023-03-10T14:52:51.651Z,4.70
2023-03-10T14:53:53.546Z,7.40
2023-03-10T14:54:55.614Z,4.50
2023-03-10T14:56:00.427Z,3.58
2023-03-10T14:57:03.622Z,2.80
2023-03-10T14:58:06.897Z,2.13
2023-03-10T14:59:14.087Z,5.30
2023-03-10T15:00:19.523Z,6.70
2023-03-10T15:01:22.093Z,7.75
2023-03-10T15:02:25.622Z,5.97
2023-03-10T15:03:28.240Z,7.03
2023-03-10T15:04:30.146Z,4.15
2023-03-10T15:05:47.314Z,5.60
2023-03-10T15:06:50.072Z,3.53
2023-03-10T15:07:52.171Z,3.88
2023-03-10T15:08:54.051Z,4.22
2023-03-10T15:10:10.696Z,1.60
2023-03-10T15:11:14.689Z,3.10
2023-03-10T15:12:20.525Z,2.45
2023-03-10T15:13:24.941Z,1.85
2023-03-10T15:14:27.122Z,2.53
2023-03-10T15:15:39.559Z,1.90
2023-03-10T15:16:41.797Z,2.03
2023-03-10T15:17:45.236Z,2.53
2023-03-10T15:18:49.204Z,2.33
2023-03-10T15:19:51.295Z,1.98
2023-03-10T15:21:03.557Z,2.60
2023-03-10T15:22:05.479Z,3.72
2023-03-10T15:23:07.925Z,4.38
2023-03-10T15:24:09.877Z,8.00
2023-03-10T15:25:13.584Z,7.28
2023-03-10T15:26:15.652Z,4.82
2023-03-10T15:27:17.625Z,2.35
2023-03-10T15:28:19.897Z,2.42
2023-03-10T15:29:23.724Z,3.45
2023-03-10T15:30:31.849Z,4.53
2023-03-10T15:31:33.829Z,6.00
2023-03-10T15:32:36.052Z,6.15
2023-03-10T15:33:38.104Z,5.10
2023-03-10T15:34:40.024Z,4.78
2023-03-10T15:35:43.866Z,3.33
2023-03-10T15:36:46.254Z,4.78
2023-03-10T15:37:49.001Z,5.35
2023-03-10T15:38:52.867Z,3.30
2023-03-10T15:39:54.915Z,3.55
2023-03-10T15:40:57.307Z,6.85
2023-03-10T15:41:59.274Z,4.35
2023-03-10T15:43:01.459Z,5.53
2023-03-10T15:44:04.243Z,3.05
2023-03-10T15:45:08.394Z,5.07
2023-03-10T15:46:11.394Z,5.07
2023-03-10T15:47:13.314Z,6.97
2023-03-10T15:48:15.210Z,8.57
2023-03-10T15:49:17.532Z,10.25
2023-03-10T15:50:20.965Z,8.20
2023-03-10T15:51:23.362Z,14.70
2023-03-10T15:52:25.342Z,11.43
2023-03-10T15:53:27.338Z,12.60
2023-03-10T15:54:29.423Z,11.68
2023-03-10T15:55:31.487Z,12.38
2023-03-10T15:56:34.111Z,12.57
2023-03-10T15:57:36.616Z,12.98
2023-03-10T15:58:38.671Z,6.70
2023-03-10T15:59:41.010Z,9.48
2023-03-10T16:00:43.933Z,8.77
2023-03-10T16:01:46.172Z,8.95
2023-03-10T16:02:49.322Z,7.32
2023-03-10T16:03:51.373Z,16.02
2023-03-10T16:04:53.674Z,11.95
2023-03-10T16:05:55.569Z,7.57
2023-03-10T16:06:57.547Z,17.20
2023-03-10T16:07:59.600Z,25.27
2023-03-10T16:09:01.826Z,12.45
2023-03-10T16:10:04.872Z,9.38
2023-03-10T16:11:16.278Z,10.77
2023-03-10T16:12:18.295Z,8.77
2023-03-10T16:13:20.982Z,27.92
2023-03-10T16:14:26.126Z,56.88
2023-03-10T16:15:28.156Z,45.67
2023-03-10T16:16:30.158Z,20.85
2023-03-10T16:17:32.176Z,20.58
2023-03-10T16:18:35.179Z,9.55
2023-03-10T16:19:37.275Z,6.70
2023-03-10T16:20:39.166Z,10.00
2023-03-10T16:21:41.023Z,5.97
2023-03-10T16:22:43.250Z,19.83
2023-03-10T16:23:45.747Z,13.30
2023-03-10T16:24:47.954Z,10.27
2023-03-10T16:26:16.635Z,13.90
2023-03-10T16:27:18.702Z,14.00
2023-03-10T16:28:20.576Z,14.80
2023-03-10T16:29:22.599Z,8.32
2023-03-10T16:30:24.820Z,11.43
2023-03-10T16:31:27.857Z,6.38
2023-03-10T16:32:30.730Z,6.68
2023-03-10T16:33:33.512Z,4.55
2023-03-10T16:34:36.340Z,5.72
2023-03-10T16:35:38.920Z,3.20
2023-03-10T16:36:40.949Z,7.22
2023-03-10T16:37:42.863Z,9.80
2023-03-10T16:38:44.954Z,11.10
2023-03-10T16:39:47.088Z,8.43
2023-03-10T16:40:50.668Z,5.93
2023-03-10T16:41:52.891Z,5.20
2023-03-10T16:42:54.797Z,7.25
2023-03-10T16:43:56.714Z,4.70
2023-03-10T16:44:58.601Z,7.68
2023-03-10T16:46:11.663Z,4.63
2023-03-10T16:47:15.219Z,3.25
2023-03-10T16:48:20.415Z,4.00
2023-03-10T16:49:23.007Z,5.88
2023-03-10T16:50:25.015Z,4.63
2023-03-10T16:51:38.165Z,4.60
2023-03-10T16:52:42.707Z,5.20
2023-03-10T16:53:45.188Z,7.13
2023-03-10T16:54:47.930Z,2.15
2023-03-10T16:55:50.061Z,1.70
2023-03-10T16:56:54.455Z,2.78
2023-03-10T16:57:57.201Z,2.67
2023-03-10T16:58:59.192Z,2.33
2023-03-10T17:00:01.746Z,4.20
2023-03-10T17:01:03.776Z,2.58
2023-03-10T17:02:06.224Z,2.45
2023-03-10T17:03:08.186Z,2.65
2023-03-10T17:04:11.550Z,5.07
2023-03-10T17:05:15.400Z,6.03
2023-03-10T17:06:22.618Z,3.90
2023-03-10T17:07:24.576Z,5.20
2023-03-10T17:08:28.832Z,4.38
2023-03-10T17:09:30.850Z,8.80
2023-03-10T17:10:33.449Z,5.70
2023-03-10T17:11:38.509Z,6.38
2023-03-10T17:12:40.478Z,2.97
2023-03-10T17:13:46.283Z,4.18
2023-03-10T17:14:50.851Z,2.30
2023-03-10T17:15:52.988Z,2.85
2023-03-10T17:16:55.982Z,3.92
2023-03-10T17:17:58.045Z,3.90
2023-03-10T17:19:03.501Z,7.47
2023-03-10T17:20:05.960Z,3.90
2023-03-10T17:21:12.697Z,4.40
2023-03-10T17:22:14.887Z,4.40
2023-03-10T17:23:16.886Z,23.48
2023-03-10T17:24:20.296Z,7.40
2023-03-10T17:25:22.349Z,5.65
2023-03-10T17:26:24.948Z,2.90
2023-03-10T17:27:27.857Z,2.60
2023-03-10T17:28:32.304Z,5.18
2023-03-10T17:29:34.348Z,9.98
2023-03-10T17:30:40.187Z,25.70
2023-03-10T17:31:43.965Z,18.38
2023-03-10T17:32:48.492Z,7.40
2023-03-10T17:33:50.619Z,8.88
2023-03-10T17:34:53.778Z,11.38
2023-03-10T17:35:55.655Z,5.63
2023-03-10T17:36:57.540Z,3.38
2023-03-10T17:37:59.731Z,8.38
2023-03-10T17:39:03.777Z,4.07
2023-03-10T17:40:09.376Z,3.08
2023-03-10T17:41:13.910Z,3.53
2023-03-10T17:42:18.299Z,3.67
2023-03-10T17:43:33.504Z,3.42
2023-03-10T17:44:35.917Z,3.15
2023-03-10T17:45:38.238Z,3.65
2023-03-10T17:46:43.174Z,6.10
2023-03-10T17:47:45.472Z,2.80
2023-03-10T17:48:47.729Z,3.15
2023-03-10T17:49:49.973Z,4.38
2023-03-10T17:50:52.108Z,3.65
2023-03-10T17:51:54.540Z,2.92
2023-03-10T17:52:56.451Z,3.95
2023-03-10T17:54:01.371Z,4.72
2023-03-10T17:55:03.569Z,4.10
2023-03-10T17:56:07.091Z,6.05
2023-03-10T17:57:09.125Z,5.05